Terminal Aerodrome Forecast
Issued by NWS

Home | Current Version | Previous Version | Text Only | Print | Product List | Glossary On
Versions: 1 2 3 4 5 6 7 8 9 10 11 12 13 14 15 16 17
000
FTUS43 KIND 051825 AAA
TAFLAF
TAF AMD
KLAF 051825Z 0518/0618 36012G18KT P6SM SCT022
     FM052300 36008KT P6SM FEW040
     FM060600 VRB02KT P6SM SKC=

USA.gov is the U.S. government's official web portal to all federal, state and local government web resources and services.